sensor_id;sensor_type;location;lat;lon;timestamp;temperature;humidity
7129;DHT22;3606;52.930;8.644;2024-02-26T00:01:42;3.10;99.90
7129;DHT22;3606;52.930;8.644;2024-02-26T00:04:11;3.00;99.90
7129;DHT22;3606;52.930;8.644;2024-02-26T00:06:38;3.00;99.90
7129;DHT22;3606;52.930;8.644;2024-02-26T00:09:07;2.80;99.90
7129;DHT22;3606;52.930;8.644;2024-02-26T00:11:32;2.80;99.90
7129;DHT22;3606;52.930;8.644;2024-02-26T00:13:58;2.80;99.90
7129;DHT22;3606;52.930;8.644;2024-02-26T00:16:24;2.80;99.90
7129;DHT22;3606;52.930;8.644;2024-02-26T00:18:49;2.80;99.90
7129;DHT22;3606;52.930;8.644;2024-02-26T00:21:15;2.70;99.90
7129;DHT22;3606;52.930;8.644;2024-02-26T00:23:41;2.60;99.90
7129;DHT22;3606;52.930;8.644;2024-02-26T00:26:07;2.50;99.90
7129;DHT22;3606;52.930;8.644;2024-02-26T00:28:33;2.50;99.90
7129;DHT22;3606;52.930;8.644;2024-02-26T00:30:59;2.50;99.90
7129;DHT22;3606;52.930;8.644;2024-02-26T00:33:25;2.50;99.90
7129;DHT22;3606;52.930;8.644;2024-02-26T00:35:50;2.50;99.90
7129;DHT22;3606;52.930;8.644;2024-02-26T00:38:16;2.60;99.90
7129;DHT22;3606;52.930;8.644;2024-02-26T00:40:42;2.50;99.90
7129;DHT22;3606;52.930;8.644;2024-02-26T00:43:07;2.50;99.90
7129;DHT22;3606;52.930;8.644;2024-02-26T00:45:33;2.40;99.90
7129;DHT22;3606;52.930;8.644;2024-02-26T00:47:59;2.40;99.90
7129;DHT22;3606;52.930;8.644;2024-02-26T00:50:30;2.30;99.90
7129;DHT22;3606;52.930;8.644;2024-02-26T00:52:55;2.40;99.90
7129;DHT22;3606;52.930;8.644;2024-02-26T00:55:21;2.40;99.90
7129;DHT22;3606;52.930;8.644;2024-02-26T00:57:46;2.50;99.90
7129;DHT22;3606;52.930;8.644;2024-02-26T01:00:12;2.40;99.90
7129;DHT22;3606;52.930;8.644;2024-02-26T01:02:38;2.40;99.90
7129;DHT22;3606;52.930;8.644;2024-02-26T01:05:05;2.30;99.90
7129;DHT22;3606;52.930;8.644;2024-02-26T01:07:31;2.20;99.90
7129;DHT22;3606;52.930;8.644;2024-02-26T01:10:01;2.20;99.90
7129;DHT22;3606;52.930;8.644;2024-02-26T01:12:27;2.10;99.90
7129;DHT22;3606;52.930;8.644;2024-02-26T01:14:53;2.30;99.90
7129;DHT22;3606;52.930;8.644;2024-02-26T01:17:18;2.30;99.90
7129;DHT22;3606;52.930;8.644;2024-02-26T01:19:44;2.40;99.90
7129;DHT22;3606;52.930;8.644;2024-02-26T01:22:09;2.40;99.90
7129;DHT22;3606;52.930;8.644;2024-02-26T01:24:35;2.40;99.90
7129;DHT22;3606;52.930;8.644;2024-02-26T01:27:01;2.40;99.90
7129;DHT22;3606;52.930;8.644;2024-02-26T01:29:26;2.30;99.90
7129;DHT22;3606;52.930;8.644;2024-02-26T01:31:52;2.30;99.90
7129;DHT22;3606;52.930;8.644;2024-02-26T01:34:17;2.30;99.90
7129;DHT22;3606;52.930;8.644;2024-02-26T01:36:44;2.40;99.90
7129;DHT22;3606;52.930;8.644;2024-02-26T01:39:09;2.30;99.90
7129;DHT22;3606;52.930;8.644;2024-02-26T01:41:39;2.30;99.90
7129;DHT22;3606;52.930;8.644;2024-02-26T01:44:05;2.40;99.90
7129;DHT22;3606;52.930;8.644;2024-02-26T01:46:33;2.40;99.90
7129;DHT22;3606;52.930;8.644;2024-02-26T01:49:00;2.50;99.90
7129;DHT22;3606;52.930;8.644;2024-02-26T01:51:27;2.60;99.90
7129;DHT22;3606;52.930;8.644;2024-02-26T01:53:53;2.50;99.90
7129;DHT22;3606;52.930;8.644;2024-02-26T01:56:19;2.40;99.90
7129;DHT22;3606;52.930;8.644;2024-02-26T01:58:47;2.30;99.90
7129;DHT22;3606;52.930;8.644;2024-02-26T02:01:15;2.40;99.90
7129;DHT22;3606;52.930;8.644;2024-02-26T02:03:41;2.40;99.90
7129;DHT22;3606;52.930;8.644;2024-02-26T02:06:08;2.30;99.90
7129;DHT22;3606;52.930;8.644;2024-02-26T02:08:34;2.20;99.90
7129;DHT22;3606;52.930;8.644;2024-02-26T02:11:00;2.10;99.90
7129;DHT22;3606;52.930;8.644;2024-02-26T02:13:26;2.10;99.90
7129;DHT22;3606;52.930;8.644;2024-02-26T02:15:52;2.00;99.90
7129;DHT22;3606;52.930;8.644;2024-02-26T02:18:19;1.90;99.90
7129;DHT22;3606;52.930;8.644;2024-02-26T02:20:45;1.70;99.90
7129;DHT22;3606;52.930;8.644;2024-02-26T02:23:11;1.60;99.90
7129;DHT22;3606;52.930;8.644;2024-02-26T02:25:37;1.60;99.90
7129;DHT22;3606;52.930;8.644;2024-02-26T02:28:02;1.70;99.90
7129;DHT22;3606;52.930;8.644;2024-02-26T02:30:30;1.70;99.90
7129;DHT22;3606;52.930;8.644;2024-02-26T02:32:57;1.70;99.90
7129;DHT22;3606;52.930;8.644;2024-02-26T02:35:24;1.70;99.90
7129;DHT22;3606;52.930;8.644;2024-02-26T02:37:52;1.70;99.90
7129;DHT22;3606;52.930;8.644;2024-02-26T02:40:18;2.00;99.90
7129;DHT22;3606;52.930;8.644;2024-02-26T02:42:44;2.00;99.90
7129;DHT22;3606;52.930;8.644;2024-02-26T02:45:11;2.00;99.90
7129;DHT22;3606;52.930;8.644;2024-02-26T02:47:37;2.00;99.90
7129;DHT22;3606;52.930;8.644;2024-02-26T02:50:03;2.00;99.90
7129;DHT22;3606;52.930;8.644;2024-02-26T02:52:29;2.10;99.90
7129;DHT22;3606;52.930;8.644;2024-02-26T02:54:55;2.00;99.90
7129;DHT22;3606;52.930;8.644;2024-02-26T02:57:20;1.90;99.90
7129;DHT22;3606;52.930;8.644;2024-02-26T02:59:46;2.00;99.90
7129;DHT22;3606;52.930;8.644;2024-02-26T03:02:12;2.00;99.90
7129;DHT22;3606;52.930;8.644;2024-02-26T03:04:37;2.00;99.90
7129;DHT22;3606;52.930;8.644;2024-02-26T03:07:03;2.10;99.90
7129;DHT22;3606;52.930;8.644;2024-02-26T03:09:29;2.10;99.90
7129;DHT22;3606;52.930;8.644;2024-02-26T03:11:54;2.10;99.90
7129;DHT22;3606;52.930;8.644;2024-02-26T03:14:20;2.10;99.90
7129;DHT22;3606;52.930;8.644;2024-02-26T03:16:46;2.00;99.90
7129;DHT22;3606;52.930;8.644;2024-02-26T03:19:14;2.10;99.90
7129;DHT22;3606;52.930;8.644;2024-02-26T03:21:41;2.20;99.90
7129;DHT22;3606;52.930;8.644;2024-02-26T03:24:07;2.20;99.90
7129;DHT22;3606;52.930;8.644;2024-02-26T03:26:36;2.10;99.90
7129;DHT22;3606;52.930;8.644;2024-02-26T03:29:01;2.00;99.90
7129;DHT22;3606;52.930;8.644;2024-02-26T03:31:28;2.00;99.90
7129;DHT22;3606;52.930;8.644;2024-02-26T03:33:54;2.00;99.90
7129;DHT22;3606;52.930;8.644;2024-02-26T03:36:19;2.00;99.90
7129;DHT22;3606;52.930;8.644;2024-02-26T03:38:47;2.10;99.90
7129;DHT22;3606;52.930;8.644;2024-02-26T03:41:12;2.20;99.90
7129;DHT22;3606;52.930;8.644;2024-02-26T03:43:38;2.30;99.90
7129;DHT22;3606;52.930;8.644;2024-02-26T03:46:03;2.40;99.90
7129;DHT22;3606;52.930;8.644;2024-02-26T03:48:29;2.30;99.90
7129;DHT22;3606;52.930;8.644;2024-02-26T03:50:55;2.30;99.90
7129;DHT22;3606;52.930;8.644;2024-02-26T03:53:20;2.30;99.90
7129;DHT22;3606;52.930;8.644;2024-02-26T03:55:46;2.30;99.90
7129;DHT22;3606;52.930;8.644;2024-02-26T03:58:12;2.20;99.90
7129;DHT22;3606;52.930;8.644;2024-02-26T04:00:38;2.30;99.90
7129;DHT22;3606;52.930;8.644;2024-02-26T04:03:04;2.40;99.90
7129;DHT22;3606;52.930;8.644;2024-02-26T04:05:29;2.40;99.90
7129;DHT22;3606;52.930;8.644;2024-02-26T04:07:55;2.30;99.90
7129;DHT22;3606;52.930;8.644;2024-02-26T04:10:20;2.40;99.90
7129;DHT22;3606;52.930;8.644;2024-02-26T04:12:46;2.30;99.90
7129;DHT22;3606;52.930;8.644;2024-02-26T04:15:12;2.20;99.90
7129;DHT22;3606;52.930;8.644;2024-02-26T04:17:38;2.30;99.90
7129;DHT22;3606;52.930;8.644;2024-02-26T04:20:04;2.30;99.90
7129;DHT22;3606;52.930;8.644;2024-02-26T04:22:33;2.30;99.90
7129;DHT22;3606;52.930;8.644;2024-02-26T04:24:59;2.40;99.90
7129;DHT22;3606;52.930;8.644;2024-02-26T04:27:24;2.40;99.90
7129;DHT22;3606;52.930;8.644;2024-02-26T04:29:50;2.30;99.90
7129;DHT22;3606;52.930;8.644;2024-02-26T04:32:16;2.30;99.90
7129;DHT22;3606;52.930;8.644;2024-02-26T04:34:41;2.30;99.90
7129;DHT22;3606;52.930;8.644;2024-02-26T04:37:07;2.30;99.90
7129;DHT22;3606;52.930;8.644;2024-02-26T04:39:33;2.30;99.90
7129;DHT22;3606;52.930;8.644;2024-02-26T04:41:59;2.40;99.90
7129;DHT22;3606;52.930;8.644;2024-02-26T04:44:24;2.30;99.90
7129;DHT22;3606;52.930;8.644;2024-02-26T04:46:50;2.30;99.90
7129;DHT22;3606;52.930;8.644;2024-02-26T04:49:15;2.40;99.90
7129;DHT22;3606;52.930;8.644;2024-02-26T04:51:41;2.40;99.90
7129;DHT22;3606;52.930;8.644;2024-02-26T04:54:07;2.50;99.90
7129;DHT22;3606;52.930;8.644;2024-02-26T04:56:32;2.50;99.90
7129;DHT22;3606;52.930;8.644;2024-02-26T04:58:58;2.50;99.90
7129;DHT22;3606;52.930;8.644;2024-02-26T05:01:23;2.60;99.90
7129;DHT22;3606;52.930;8.644;2024-02-26T05:03:49;2.70;99.90
7129;DHT22;3606;52.930;8.644;2024-02-26T05:06:15;2.70;99.90
7129;DHT22;3606;52.930;8.644;2024-02-26T05:08:40;2.70;99.90
7129;DHT22;3606;52.930;8.644;2024-02-26T05:11:06;2.70;99.90
7129;DHT22;3606;52.930;8.644;2024-02-26T05:13:32;2.60;99.90
7129;DHT22;3606;52.930;8.644;2024-02-26T05:15:57;2.60;99.90
7129;DHT22;3606;52.930;8.644;2024-02-26T05:18:23;2.60;99.90
7129;DHT22;3606;52.930;8.644;2024-02-26T05:20:49;2.70;99.90
7129;DHT22;3606;52.930;8.644;2024-02-26T05:23:15;2.60;99.90
7129;DHT22;3606;52.930;8.644;2024-02-26T05:25:40;2.50;99.90
7129;DHT22;3606;52.930;8.644;2024-02-26T05:28:06;2.50;99.90
7129;DHT22;3606;52.930;8.644;2024-02-26T05:30:32;2.50;99.90
7129;DHT22;3606;52.930;8.644;2024-02-26T05:32:58;2.60;99.90
7129;DHT22;3606;52.930;8.644;2024-02-26T05:35:24;2.60;99.90
7129;DHT22;3606;52.930;8.644;2024-02-26T05:37:51;2.60;99.90
7129;DHT22;3606;52.930;8.644;2024-02-26T05:40:16;2.60;99.90
7129;DHT22;3606;52.930;8.644;2024-02-26T05:42:42;2.60;99.90
7129;DHT22;3606;52.930;8.644;2024-02-26T05:45:10;2.60;99.90
7129;DHT22;3606;52.930;8.644;2024-02-26T05:47:35;2.60;99.90
7129;DHT22;3606;52.930;8.644;2024-02-26T05:50:02;2.50;99.90
7129;DHT22;3606;52.930;8.644;2024-02-26T05:52:27;2.60;99.90
7129;DHT22;3606;52.930;8.644;2024-02-26T05:54:54;2.60;99.90
7129;DHT22;3606;52.930;8.644;2024-02-26T05:57:20;2.50;99.90
7129;DHT22;3606;52.930;8.644;2024-02-26T05:59:46;2.60;99.90
7129;DHT22;3606;52.930;8.644;2024-02-26T06:02:11;2.70;99.90
7129;DHT22;3606;52.930;8.644;2024-02-26T06:04:37;2.70;99.90
7129;DHT22;3606;52.930;8.644;2024-02-26T06:07:02;2.70;99.90
7129;DHT22;3606;52.930;8.644;2024-02-26T06:09:28;2.70;99.90
7129;DHT22;3606;52.930;8.644;2024-02-26T06:11:54;2.70;99.90
7129;DHT22;3606;52.930;8.644;2024-02-26T06:14:20;2.70;99.90
7129;DHT22;3606;52.930;8.644;2024-02-26T06:16:46;2.70;99.90
7129;DHT22;3606;52.930;8.644;2024-02-26T06:19:12;2.70;99.90
7129;DHT22;3606;52.930;8.644;2024-02-26T06:21:37;2.70;99.90
7129;DHT22;3606;52.930;8.644;2024-02-26T06:24:03;2.80;99.90
7129;DHT22;3606;52.930;8.644;2024-02-26T06:26:29;2.80;99.90
7129;DHT22;3606;52.930;8.644;2024-02-26T06:28:55;2.70;99.90
7129;DHT22;3606;52.930;8.644;2024-02-26T06:31:22;2.70;99.90
7129;DHT22;3606;52.930;8.644;2024-02-26T06:33:48;2.80;99.90
7129;DHT22;3606;52.930;8.644;2024-02-26T06:36:15;2.70;99.90
7129;DHT22;3606;52.930;8.644;2024-02-26T06:38:41;2.70;99.90
7129;DHT22;3606;52.930;8.644;2024-02-26T06:41:06;2.80;99.90
7129;DHT22;3606;52.930;8.644;2024-02-26T06:43:32;2.70;99.90
7129;DHT22;3606;52.930;8.644;2024-02-26T06:45:58;2.80;99.90
7129;DHT22;3606;52.930;8.644;2024-02-26T06:48:24;2.80;99.90
7129;DHT22;3606;52.930;8.644;2024-02-26T06:50:50;2.80;99.90
7129;DHT22;3606;52.930;8.644;2024-02-26T06:53:15;2.80;99.90
7129;DHT22;3606;52.930;8.644;2024-02-26T06:55:42;2.80;99.90
7129;DHT22;3606;52.930;8.644;2024-02-26T06:58:08;2.90;99.90
7129;DHT22;3606;52.930;8.644;2024-02-26T07:00:34;2.90;99.90
7129;DHT22;3606;52.930;8.644;2024-02-26T07:03:00;3.00;99.90
7129;DHT22;3606;52.930;8.644;2024-02-26T07:05:26;3.00;99.90
7129;DHT22;3606;52.930;8.644;2024-02-26T07:07:52;3.00;99.90
7129;DHT22;3606;52.930;8.644;2024-02-26T07:10:18;3.00;99.90
7129;DHT22;3606;52.930;8.644;2024-02-26T07:12:44;3.00;99.90
7129;DHT22;3606;52.930;8.644;2024-02-26T07:15:10;3.20;99.90
7129;DHT22;3606;52.930;8.644;2024-02-26T07:17:36;3.20;99.90
7129;DHT22;3606;52.930;8.644;2024-02-26T07:20:01;3.10;99.90
7129;DHT22;3606;52.930;8.644;2024-02-26T07:22:30;3.10;99.90
7129;DHT22;3606;52.930;8.644;2024-02-26T07:24:55;3.20;99.90
7129;DHT22;3606;52.930;8.644;2024-02-26T07:27:21;3.20;99.90
7129;DHT22;3606;52.930;8.644;2024-02-26T07:29:47;3.20;99.90
7129;DHT22;3606;52.930;8.644;2024-02-26T07:32:12;3.30;99.90
7129;DHT22;3606;52.930;8.644;2024-02-26T07:34:38;3.30;99.90
7129;DHT22;3606;52.930;8.644;2024-02-26T07:37:07;3.30;99.90
7129;DHT22;3606;52.930;8.644;2024-02-26T07:39:33;3.30;99.90
7129;DHT22;3606;52.930;8.644;2024-02-26T07:41:59;3.40;99.90
7129;DHT22;3606;52.930;8.644;2024-02-26T07:44:24;3.40;99.90
7129;DHT22;3606;52.930;8.644;2024-02-26T07:46:50;3.40;99.90
7129;DHT22;3606;52.930;8.644;2024-02-26T07:49:16;3.40;99.90
7129;DHT22;3606;52.930;8.644;2024-02-26T07:51:41;3.50;99.90
7129;DHT22;3606;52.930;8.644;2024-02-26T07:54:07;3.50;99.90
7129;DHT22;3606;52.930;8.644;2024-02-26T07:56:33;3.50;99.90
7129;DHT22;3606;52.930;8.644;2024-02-26T07:58:58;3.50;99.90
7129;DHT22;3606;52.930;8.644;2024-02-26T08:01:24;3.50;99.90
7129;DHT22;3606;52.930;8.644;2024-02-26T08:03:52;3.60;99.90
7129;DHT22;3606;52.930;8.644;2024-02-26T08:06:18;3.60;99.90
7129;DHT22;3606;52.930;8.644;2024-02-26T08:08:44;3.60;99.90
7129;DHT22;3606;52.930;8.644;2024-02-26T08:11:09;3.70;99.90
7129;DHT22;3606;52.930;8.644;2024-02-26T08:13:35;3.70;99.90
7129;DHT22;3606;52.930;8.644;2024-02-26T08:16:01;3.80;99.90
7129;DHT22;3606;52.930;8.644;2024-02-26T08:18:27;3.80;99.90
7129;DHT22;3606;52.930;8.644;2024-02-26T08:20:52;3.90;99.90
7129;DHT22;3606;52.930;8.644;2024-02-26T08:23:18;4.00;99.90
7129;DHT22;3606;52.930;8.644;2024-02-26T08:25:44;4.00;99.90
7129;DHT22;3606;52.930;8.644;2024-02-26T08:28:09;4.10;99.90
7129;DHT22;3606;52.930;8.644;2024-02-26T08:30:38;4.20;99.90
7129;DHT22;3606;52.930;8.644;2024-02-26T08:33:04;4.30;99.90
7129;DHT22;3606;52.930;8.644;2024-02-26T08:35:30;4.40;99.90
7129;DHT22;3606;52.930;8.644;2024-02-26T08:37:55;4.40;99.90
7129;DHT22;3606;52.930;8.644;2024-02-26T08:40:21;4.30;99.90
7129;DHT22;3606;52.930;8.644;2024-02-26T08:42:47;4.40;99.90
7129;DHT22;3606;52.930;8.644;2024-02-26T08:45:13;4.40;99.90
7129;DHT22;3606;52.930;8.644;2024-02-26T08:47:38;4.60;99.90
7129;DHT22;3606;52.930;8.644;2024-02-26T08:50:05;4.70;99.90
7129;DHT22;3606;52.930;8.644;2024-02-26T08:52:30;4.90;99.90
7129;DHT22;3606;52.930;8.644;2024-02-26T08:54:56;4.90;99.90
7129;DHT22;3606;52.930;8.644;2024-02-26T08:57:22;4.90;99.90
7129;DHT22;3606;52.930;8.644;2024-02-26T08:59:48;4.90;99.90
7129;DHT22;3606;52.930;8.644;2024-02-26T09:02:13;4.90;99.90
7129;DHT22;3606;52.930;8.644;2024-02-26T09:04:39;5.00;99.90
7129;DHT22;3606;52.930;8.644;2024-02-26T09:07:05;5.10;99.90
7129;DHT22;3606;52.930;8.644;2024-02-26T09:09:31;5.20;99.90
7129;DHT22;3606;52.930;8.644;2024-02-26T09:11:57;5.50;99.90
7129;DHT22;3606;52.930;8.644;2024-02-26T09:14:22;5.80;99.90
7129;DHT22;3606;52.930;8.644;2024-02-26T09:16:48;6.10;99.90
7129;DHT22;3606;52.930;8.644;2024-02-26T09:19:14;6.50;99.90
7129;DHT22;3606;52.930;8.644;2024-02-26T09:21:46;6.80;99.90
7129;DHT22;3606;52.930;8.644;2024-02-26T09:24:12;7.10;99.90
7129;DHT22;3606;52.930;8.644;2024-02-26T09:26:38;7.10;99.90
7129;DHT22;3606;52.930;8.644;2024-02-26T09:29:03;7.00;99.90
7129;DHT22;3606;52.930;8.644;2024-02-26T09:31:30;7.00;99.90
7129;DHT22;3606;52.930;8.644;2024-02-26T09:33:55;7.10;99.90
7129;DHT22;3606;52.930;8.644;2024-02-26T09:36:21;7.00;99.90
7129;DHT22;3606;52.930;8.644;2024-02-26T09:38:47;6.90;99.90
7129;DHT22;3606;52.930;8.644;2024-02-26T09:41:14;6.80;99.90
7129;DHT22;3606;52.930;8.644;2024-02-26T09:43:44;6.90;99.90
7129;DHT22;3606;52.930;8.644;2024-02-26T09:46:10;6.90;99.90
7129;DHT22;3606;52.930;8.644;2024-02-26T09:48:37;6.90;99.90
7129;DHT22;3606;52.930;8.644;2024-02-26T09:51:03;7.00;99.90
7129;DHT22;3606;52.930;8.644;2024-02-26T09:53:30;7.10;99.90
7129;DHT22;3606;52.930;8.644;2024-02-26T09:55:58;7.30;99.90
7129;DHT22;3606;52.930;8.644;2024-02-26T09:58:25;7.50;99.90
7129;DHT22;3606;52.930;8.644;2024-02-26T10:00:56;7.70;99.90
7129;DHT22;3606;52.930;8.644;2024-02-26T10:03:34;7.90;99.90
7129;DHT22;3606;52.930;8.644;2024-02-26T10:06:01;7.80;99.90
7129;DHT22;3606;52.930;8.644;2024-02-26T10:08:29;7.90;99.90
7129;DHT22;3606;52.930;8.644;2024-02-26T10:10:56;7.90;99.90
7129;DHT22;3606;52.930;8.644;2024-02-26T10:13:21;7.80;99.90
7129;DHT22;3606;52.930;8.644;2024-02-26T10:15:48;7.70;99.90
7129;DHT22;3606;52.930;8.644;2024-02-26T10:18:14;7.50;99.90
7129;DHT22;3606;52.930;8.644;2024-02-26T10:20:39;7.40;99.90
7129;DHT22;3606;52.930;8.644;2024-02-26T10:23:05;7.30;99.90
7129;DHT22;3606;52.930;8.644;2024-02-26T10:25:31;7.30;99.90
7129;DHT22;3606;52.930;8.644;2024-02-26T10:28:01;7.30;99.90
7129;DHT22;3606;52.930;8.644;2024-02-26T10:30:30;7.50;99.90
7129;DHT22;3606;52.930;8.644;2024-02-26T10:32:56;7.50;99.90
7129;DHT22;3606;52.930;8.644;2024-02-26T10:35:23;7.50;99.90
7129;DHT22;3606;52.930;8.644;2024-02-26T10:37:50;7.60;99.90
7129;DHT22;3606;52.930;8.644;2024-02-26T10:40:16;7.70;99.90
7129;DHT22;3606;52.930;8.644;2024-02-26T10:42:43;7.80;99.90
7129;DHT22;3606;52.930;8.644;2024-02-26T10:45:10;8.10;99.90
7129;DHT22;3606;52.930;8.644;2024-02-26T10:47:36;8.30;99.90
7129;DHT22;3606;52.930;8.644;2024-02-26T10:50:04;8.40;99.90
7129;DHT22;3606;52.930;8.644;2024-02-26T10:52:34;8.40;99.90
7129;DHT22;3606;52.930;8.644;2024-02-26T10:55:04;8.50;99.90
7129;DHT22;3606;52.930;8.644;2024-02-26T10:57:35;8.60;99.90
7129;DHT22;3606;52.930;8.644;2024-02-26T11:00:04;8.60;99.90
7129;DHT22;3606;52.930;8.644;2024-02-26T11:02:32;8.60;99.90
7129;DHT22;3606;52.930;8.644;2024-02-26T11:05:03;8.80;99.90
7129;DHT22;3606;52.930;8.644;2024-02-26T11:07:30;9.00;99.90
7129;DHT22;3606;52.930;8.644;2024-02-26T11:09:59;9.00;99.90
7129;DHT22;3606;52.930;8.644;2024-02-26T11:12:25;9.00;99.90
7129;DHT22;3606;52.930;8.644;2024-02-26T11:14:52;9.20;99.90
7129;DHT22;3606;52.930;8.644;2024-02-26T11:17:22;9.30;99.90
7129;DHT22;3606;52.930;8.644;2024-02-26T11:19:50;9.40;99.90
7129;DHT22;3606;52.930;8.644;2024-02-26T11:22:16;9.20;99.90
7129;DHT22;3606;52.930;8.644;2024-02-26T11:24:43;9.20;99.90
7129;DHT22;3606;52.930;8.644;2024-02-26T11:27:10;9.40;99.90
7129;DHT22;3606;52.930;8.644;2024-02-26T11:29:50;9.50;99.90
7129;DHT22;3606;52.930;8.644;2024-02-26T11:32:17;9.60;99.90
7129;DHT22;3606;52.930;8.644;2024-02-26T11:34:44;9.50;99.90
7129;DHT22;3606;52.930;8.644;2024-02-26T11:37:19;9.40;99.90
7129;DHT22;3606;52.930;8.644;2024-02-26T11:39:45;9.50;99.90
7129;DHT22;3606;52.930;8.644;2024-02-26T11:42:14;9.40;99.90
7129;DHT22;3606;52.930;8.644;2024-02-26T11:44:40;9.50;99.90
7129;DHT22;3606;52.930;8.644;2024-02-26T11:47:17;9.50;99.90
7129;DHT22;3606;52.930;8.644;2024-02-26T11:49:43;9.60;99.90
7129;DHT22;3606;52.930;8.644;2024-02-26T11:52:10;9.50;99.90
7129;DHT22;3606;52.930;8.644;2024-02-26T11:54:52;9.50;99.90
7129;DHT22;3606;52.930;8.644;2024-02-26T12:00:13;9.80;99.90
7129;DHT22;3606;52.930;8.644;2024-02-26T12:02:46;10.00;99.90
7129;DHT22;3606;52.930;8.644;2024-02-26T12:05:18;10.10;99.90
7129;DHT22;3606;52.930;8.644;2024-02-26T12:07:49;10.30;99.90
7129;DHT22;3606;52.930;8.644;2024-02-26T12:10:25;10.70;99.90
7129;DHT22;3606;52.930;8.644;2024-02-26T12:12:59;10.40;99.90
7129;DHT22;3606;52.930;8.644;2024-02-26T12:15:31;10.50;99.90
7129;DHT22;3606;52.930;8.644;2024-02-26T12:17:59;10.50;99.90
7129;DHT22;3606;52.930;8.644;2024-02-26T12:20:25;10.60;99.90
7129;DHT22;3606;52.930;8.644;2024-02-26T12:22:51;10.60;99.90
7129;DHT22;3606;52.930;8.644;2024-02-26T12:25:21;10.70;99.90
7129;DHT22;3606;52.930;8.644;2024-02-26T12:27:47;10.90;99.90
7129;DHT22;3606;52.930;8.644;2024-02-26T12:30:13;11.20;99.90
7129;DHT22;3606;52.930;8.644;2024-02-26T12:32:39;11.40;99.90
7129;DHT22;3606;52.930;8.644;2024-02-26T12:35:05;11.40;99.90
7129;DHT22;3606;52.930;8.644;2024-02-26T12:37:32;11.00;99.90
7129;DHT22;3606;52.930;8.644;2024-02-26T12:39:58;10.80;99.90
7129;DHT22;3606;52.930;8.644;2024-02-26T12:42:23;10.70;99.90
7129;DHT22;3606;52.930;8.644;2024-02-26T12:44:50;10.80;99.90
7129;DHT22;3606;52.930;8.644;2024-02-26T12:47:16;10.70;99.90
7129;DHT22;3606;52.930;8.644;2024-02-26T12:49:47;10.50;99.90
7129;DHT22;3606;52.930;8.644;2024-02-26T12:52:14;10.50;99.90
7129;DHT22;3606;52.930;8.644;2024-02-26T12:54:40;10.40;99.90
7129;DHT22;3606;52.930;8.644;2024-02-26T12:57:08;10.30;99.90
7129;DHT22;3606;52.930;8.644;2024-02-26T12:59:35;10.00;99.90
7129;DHT22;3606;52.930;8.644;2024-02-26T13:02:02;10.00;99.90
7129;DHT22;3606;52.930;8.644;2024-02-26T13:04:29;10.00;99.90
7129;DHT22;3606;52.930;8.644;2024-02-26T13:06:56;9.90;99.90
7129;DHT22;3606;52.930;8.644;2024-02-26T13:09:26;9.90;99.90
7129;DHT22;3606;52.930;8.644;2024-02-26T13:11:54;9.90;99.90
7129;DHT22;3606;52.930;8.644;2024-02-26T13:14:20;9.90;99.90
7129;DHT22;3606;52.930;8.644;2024-02-26T13:16:55;9.90;99.90
7129;DHT22;3606;52.930;8.644;2024-02-26T13:19:21;9.90;99.90
7129;DHT22;3606;52.930;8.644;2024-02-26T13:21:46;9.60;99.90
7129;DHT22;3606;52.930;8.644;2024-02-26T13:24:13;9.40;99.90
7129;DHT22;3606;52.930;8.644;2024-02-26T13:26:39;9.20;99.90
7129;DHT22;3606;52.930;8.644;2024-02-26T13:29:05;9.20;99.90
7129;DHT22;3606;52.930;8.644;2024-02-26T13:31:30;9.10;99.90
7129;DHT22;3606;52.930;8.644;2024-02-26T13:33:56;9.00;99.90
7129;DHT22;3606;52.930;8.644;2024-02-26T13:36:22;9.00;99.90
7129;DHT22;3606;52.930;8.644;2024-02-26T13:38:52;9.10;99.90
7129;DHT22;3606;52.930;8.644;2024-02-26T13:41:18;9.20;99.90
7129;DHT22;3606;52.930;8.644;2024-02-26T13:43:44;9.30;99.90
7129;DHT22;3606;52.930;8.644;2024-02-26T13:46:10;9.30;99.90
7129;DHT22;3606;52.930;8.644;2024-02-26T13:48:38;9.20;99.90
7129;DHT22;3606;52.930;8.644;2024-02-26T13:51:03;9.10;99.90
7129;DHT22;3606;52.930;8.644;2024-02-26T13:53:29;9.10;99.90
7129;DHT22;3606;52.930;8.644;2024-02-26T13:55:55;9.00;99.90
7129;DHT22;3606;52.930;8.644;2024-02-26T13:58:21;8.90;99.90
7129;DHT22;3606;52.930;8.644;2024-02-26T14:00:49;8.90;99.90
7129;DHT22;3606;52.930;8.644;2024-02-26T14:03:14;8.90;99.90
7129;DHT22;3606;52.930;8.644;2024-02-26T14:05:41;8.80;99.90
7129;DHT22;3606;52.930;8.644;2024-02-26T14:08:07;8.80;99.90
7129;DHT22;3606;52.930;8.644;2024-02-26T14:10:33;8.70;99.90
7129;DHT22;3606;52.930;8.644;2024-02-26T14:12:58;8.60;99.90
7129;DHT22;3606;52.930;8.644;2024-02-26T14:15:25;8.60;99.90
7129;DHT22;3606;52.930;8.644;2024-02-26T14:17:52;8.60;99.90
7129;DHT22;3606;52.930;8.644;2024-02-26T14:20:25;8.60;99.90
7129;DHT22;3606;52.930;8.644;2024-02-26T14:22:51;8.60;99.90
7129;DHT22;3606;52.930;8.644;2024-02-26T14:25:23;8.60;99.90
7129;DHT22;3606;52.930;8.644;2024-02-26T14:27:49;8.50;99.90
7129;DHT22;3606;52.930;8.644;2024-02-26T14:30:15;8.40;99.90
7129;DHT22;3606;52.930;8.644;2024-02-26T14:32:40;8.40;99.90
7129;DHT22;3606;52.930;8.644;2024-02-26T14:35:09;8.20;99.90
7129;DHT22;3606;52.930;8.644;2024-02-26T14:37:36;8.20;99.90
7129;DHT22;3606;52.930;8.644;2024-02-26T14:40:02;8.20;99.90
7129;DHT22;3606;52.930;8.644;2024-02-26T14:42:29;8.20;99.90
7129;DHT22;3606;52.930;8.644;2024-02-26T14:44:55;8.10;99.90
7129;DHT22;3606;52.930;8.644;2024-02-26T14:47:20;8.10;99.90
7129;DHT22;3606;52.930;8.644;2024-02-26T14:49:46;8.10;99.90
7129;DHT22;3606;52.930;8.644;2024-02-26T14:52:14;8.00;99.90
7129;DHT22;3606;52.930;8.644;2024-02-26T14:54:39;8.00;99.90
7129;DHT22;3606;52.930;8.644;2024-02-26T14:57:05;7.90;99.90
7129;DHT22;3606;52.930;8.644;2024-02-26T14:59:32;7.90;99.90
7129;DHT22;3606;52.930;8.644;2024-02-26T15:01:58;7.90;99.90
7129;DHT22;3606;52.930;8.644;2024-02-26T15:04:26;7.90;99.90
7129;DHT22;3606;52.930;8.644;2024-02-26T15:06:52;7.90;99.90
7129;DHT22;3606;52.930;8.644;2024-02-26T15:09:18;7.80;99.90
7129;DHT22;3606;52.930;8.644;2024-02-26T15:11:43;7.70;99.90
7129;DHT22;3606;52.930;8.644;2024-02-26T15:14:10;7.70;99.90
7129;DHT22;3606;52.930;8.644;2024-02-26T15:16:39;7.60;99.90
7129;DHT22;3606;52.930;8.644;2024-02-26T15:19:05;7.50;99.90
7129;DHT22;3606;52.930;8.644;2024-02-26T15:21:32;7.60;99.90
7129;DHT22;3606;52.930;8.644;2024-02-26T15:23:58;7.60;99.90
7129;DHT22;3606;52.930;8.644;2024-02-26T15:26:24;7.50;99.90
7129;DHT22;3606;52.930;8.644;2024-02-26T15:28:51;7.40;99.90
7129;DHT22;3606;52.930;8.644;2024-02-26T15:31:17;7.40;99.90
7129;DHT22;3606;52.930;8.644;2024-02-26T15:33:43;7.30;99.90
7129;DHT22;3606;52.930;8.644;2024-02-26T15:36:09;7.30;99.90
7129;DHT22;3606;52.930;8.644;2024-02-26T15:38:37;7.20;99.90
7129;DHT22;3606;52.930;8.644;2024-02-26T15:41:11;7.20;99.90
7129;DHT22;3606;52.930;8.644;2024-02-26T15:43:37;7.20;99.90
7129;DHT22;3606;52.930;8.644;2024-02-26T15:46:03;7.20;99.90
7129;DHT22;3606;52.930;8.644;2024-02-26T15:48:29;7.10;99.90
7129;DHT22;3606;52.930;8.644;2024-02-26T15:50:54;7.10;99.90
7129;DHT22;3606;52.930;8.644;2024-02-26T15:53:20;7.00;99.90
7129;DHT22;3606;52.930;8.644;2024-02-26T15:55:45;7.00;99.90
7129;DHT22;3606;52.930;8.644;2024-02-26T15:58:11;6.90;99.90
7129;DHT22;3606;52.930;8.644;2024-02-26T16:00:43;6.90;99.90
7129;DHT22;3606;52.930;8.644;2024-02-26T16:03:09;6.90;99.90
7129;DHT22;3606;52.930;8.644;2024-02-26T16:05:36;6.90;99.90
7129;DHT22;3606;52.930;8.644;2024-02-26T16:08:16;6.80;99.90
7129;DHT22;3606;52.930;8.644;2024-02-26T16:10:46;6.80;99.90
7129;DHT22;3606;52.930;8.644;2024-02-26T16:13:12;6.70;99.90
7129;DHT22;3606;52.930;8.644;2024-02-26T16:15:39;6.80;99.90